createdAt,value
2016-04-30T00:01:43.916Z,55.89
2016-04-30T00:02:29.808Z,55.89
2016-04-30T00:03:30.045Z,55.7
2016-04-30T00:04:29.861Z,55.6
2016-04-30T00:05:29.832Z,56.08
2016-04-30T00:06:29.851Z,56.36
2016-04-30T00:08:29.824Z,56.55
2016-04-30T00:09:29.359Z,56.36
2016-04-30T00:10:29.815Z,56.08
2016-04-30T00:11:29.801Z,56.36
2016-04-30T00:12:29.804Z,56.36
2016-04-30T00:13:29.667Z,56.46
2016-04-30T00:14:30.451Z,56.08
2016-04-30T00:15:29.640Z,56.65
2016-04-30T00:16:29.800Z,56.08
2016-04-30T00:17:29.802Z,57.12
2016-04-30T00:18:30.273Z,57.21
2016-04-30T00:19:29.808Z,57.31
2016-04-30T00:20:29.826Z,58.07
2016-04-30T00:21:29.328Z,59.21
2016-04-30T00:22:29.800Z,58.64
2016-04-30T00:23:29.787Z,57.98
2016-04-30T00:24:29.633Z,58.45
2016-04-30T00:25:29.793Z,57.79
2016-04-30T00:26:30.014Z,57.5
2016-04-30T00:27:29.783Z,57.4
2016-04-30T00:28:29.785Z,57.59
2016-04-30T00:29:29.819Z,57.59
2016-04-30T00:30:29.790Z,57.69
2016-04-30T00:31:29.794Z,57.59
2016-04-30T00:32:29.827Z,57.4
2016-04-30T00:33:30.299Z,57.21
2016-04-30T00:34:29.988Z,57.47
2016-04-30T00:35:29.772Z,57.47
2016-04-30T00:36:29.775Z,57.38
2016-04-30T00:37:29.778Z,57.31
2016-04-30T00:38:29.780Z,57.85
2016-04-30T00:39:29.970Z,57.57
2016-04-30T00:40:29.770Z,57.28
2016-04-30T00:41:29.757Z,57.59
2016-04-30T00:42:29.791Z,57.28
2016-04-30T00:43:29.779Z,57.38
2016-04-30T00:44:29.984Z,57.38
2016-04-30T00:45:29.612Z,57.47
2016-04-30T00:46:29.756Z,58.14
2016-04-30T00:47:29.758Z,58.07
2016-04-30T00:48:29.761Z,58.23
2016-04-30T00:49:29.607Z,57.85
2016-04-30T00:50:29.750Z,58.14
2016-04-30T00:51:29.800Z,58.14
2016-04-30T00:52:29.756Z,58.14
2016-04-30T00:53:29.587Z,58.42
2016-04-30T00:54:29.761Z,58.33
2016-04-30T00:55:29.764Z,58.04
2016-04-30T00:56:30.000Z,58.14
2016-04-30T00:57:29.628Z,58.14
2016-04-30T00:58:29.616Z,58.42
2016-04-30T00:59:29.744Z,58.89
2016-04-30T01:00:29.746Z,59.08
2016-04-30T01:01:29.749Z,58.7
2016-04-30T01:02:29.719Z,58.42
2016-04-30T01:03:30.333Z,58.89
2016-04-30T01:04:29.757Z,58.61
2016-04-30T01:05:29.962Z,58.51
2016-04-30T01:06:29.731Z,58.51
2016-04-30T01:07:29.749Z,58.61
2016-04-30T01:08:29.971Z,58.99
2016-04-30T01:09:29.723Z,58.7
2016-04-30T01:10:29.726Z,58.89
2016-04-30T01:11:29.573Z,58.8
2016-04-30T01:12:29.591Z,58.8
2016-04-30T01:13:29.906Z,58.89
2016-04-30T01:14:29.721Z,58.7
2016-04-30T01:15:29.724Z,58.7
2016-04-30T01:16:29.554Z,58.99
2016-04-30T01:17:29.729Z,58.33
2016-04-30T01:18:29.732Z,58.51
2016-04-30T01:19:29.703Z,58.51
2016-04-30T01:20:29.706Z,58.8
2016-04-30T01:21:29.896Z,58.8
2016-04-30T01:22:29.695Z,58.99
2016-04-30T01:23:29.698Z,59.18
2016-04-30T01:24:29.701Z,59.08
2016-04-30T01:25:29.703Z,58.61
2016-04-30T01:26:29.706Z,58.99
2016-04-30T01:27:29.694Z,58.99
2016-04-30T01:28:29.539Z,58.8
2016-04-30T01:29:29.714Z,59.08
2016-04-30T01:30:29.716Z,59.08
2016-04-30T01:31:29.704Z,59.18
2016-04-30T01:32:29.692Z,59.08
2016-04-30T01:33:30.397Z,59.27
2016-04-30T01:34:29.681Z,59.46
2016-04-30T01:35:29.683Z,59.56
2016-04-30T01:36:29.686Z,59.37
2016-04-30T01:37:29.533Z,59.37
2016-04-30T01:38:29.895Z,59.66
2016-04-30T01:39:29.913Z,59.84
2016-04-30T01:40:29.682Z,59.66
2016-04-30T01:41:43.746Z,59.46
2016-04-30T01:42:29.671Z,59.15
2016-04-30T01:43:29.690Z,59.94
2016-04-30T01:44:29.693Z,59.94
2016-04-30T01:45:29.665Z,59.94
2016-04-30T01:46:29.729Z,60.03
2016-04-30T01:47:29.856Z,60.22
2016-04-30T01:48:29.562Z,60.03
2016-04-30T01:49:29.659Z,59.75
2016-04-30T01:50:43.927Z,59.81
2016-04-30T01:51:29.852Z,59.56
2016-04-30T01:52:29.667Z,59.94
2016-04-30T01:53:29.670Z,60.13
2016-04-30T01:54:29.656Z,59.84
2016-04-30T01:55:43.722Z,59.84
2016-04-30T01:56:29.740Z,59.46
2016-04-30T01:57:29.836Z,59.94
2016-04-30T01:58:29.636Z,60.22
2016-04-30T01:59:29.686Z,60.31
2016-04-30T02:00:29.642Z,59.84
2016-04-30T02:01:29.863Z,59.84
2016-04-30T02:02:29.475Z,59.75
2016-04-30T02:03:29.478Z,60.13
2016-04-30T02:04:29.887Z,59.75
2016-04-30T02:05:29.639Z,59.94
2016-04-30T02:06:29.627Z,59.94
2016-04-30T02:07:29.644Z,59.75
2016-04-30T02:08:29.819Z,59.66
2016-04-30T02:09:29.619Z,60.03
2016-04-30T02:10:29.621Z,60.5
2016-04-30T02:11:29.609Z,60.22
2016-04-30T02:12:29.612Z,59.84
2016-04-30T02:13:29.630Z,60
2016-04-30T02:14:29.476Z,59.75
2016-04-30T02:15:29.603Z,59.81
2016-04-30T02:16:29.606Z,59.63
2016-04-30T02:17:29.610Z,59.46
2016-04-30T02:18:30.221Z,59.53
2016-04-30T02:19:29.631Z,59.81
2016-04-30T02:20:29.601Z,59.53
2016-04-30T02:21:29.807Z,59.44
2016-04-30T02:22:29.623Z,59.91
2016-04-30T02:23:29.438Z,60
2016-04-30T02:24:29.597Z,59.91
2016-04-30T02:25:29.787Z,59.91
2016-04-30T02:26:29.586Z,59.91
2016-04-30T02:27:29.589Z,59.72
2016-04-30T02:28:29.592Z,60
2016-04-30T02:29:29.594Z,59.81
2016-04-30T02:30:29.332Z,59.81
2016-04-30T02:31:29.147Z,60.28
2016-04-30T02:32:29.775Z,60
2016-04-30T02:33:29.558Z,59.91
2016-04-30T02:34:29.561Z,59.91
2016-04-30T02:35:29.594Z,60
2016-04-30T02:36:29.566Z,60.19
2016-04-30T02:37:29.757Z,60.28
2016-04-30T02:38:29.557Z,60.86
2016-04-30T02:39:29.559Z,60.86
2016-04-30T02:40:29.562Z,60.86
2016-04-30T02:41:29.424Z,60.76
2016-04-30T02:42:29.551Z,60.95
2016-04-30T02:43:29.554Z,60.28
2016-04-30T02:44:29.541Z,60.47
2016-04-30T02:45:29.544Z,60.67
2016-04-30T02:46:29.546Z,60.86
2016-04-30T02:47:43.612Z,60.76
2016-04-30T02:48:29.723Z,60.95
2016-04-30T02:49:29.743Z,60.28
2016-04-30T02:50:29.542Z,60.95
2016-04-30T02:51:29.529Z,60.38
2016-04-30T02:53:29.534Z,60.86
2016-04-30T02:54:29.724Z,60.86
2016-04-30T02:55:29.523Z,60.95
2016-04-30T02:56:29.371Z,60.95
2016-04-30T02:57:29.529Z,61.24
2016-04-30T02:58:29.532Z,61.05
2016-04-30T02:59:29.753Z,61.05
2016-04-30T03:00:29.505Z,61.24
2016-04-30T03:01:29.508Z,61.43
2016-04-30T03:02:29.511Z,61.43
2016-04-30T03:03:29.733Z,61.43
2016-04-30T03:04:29.502Z,61.24
2016-04-30T03:05:29.488Z,61.43
2016-04-30T03:06:29.507Z,61.24
2016-04-30T03:07:29.494Z,61.43
2016-04-30T03:09:43.561Z,61.24
2016-04-30T03:10:29.721Z,61.14
2016-04-30T03:11:29.488Z,61.24
2016-04-30T03:12:29.476Z,61.14
2016-04-30T03:13:29.479Z,61.14
2016-04-30T03:14:29.481Z,61.14
2016-04-30T03:15:29.672Z,61.33
2016-04-30T03:16:29.471Z,61.9
2016-04-30T03:17:29.505Z,61.52
2016-04-30T03:18:29.476Z,61.52
2016-04-30T03:19:29.620Z,61.43
2016-04-30T03:20:43.731Z,61.43
2016-04-30T03:21:29.656Z,61.14
2016-04-30T03:22:29.456Z,61.71
2016-04-30T03:23:29.459Z,61.71
2016-04-30T03:24:29.461Z,61.43
2016-04-30T03:25:29.449Z,61.71
2016-04-30T03:26:29.451Z,61.71
2016-04-30T03:27:29.438Z,61.43
2016-04-30T03:28:29.456Z,61.9
2016-04-30T03:30:29.306Z,61.9
2016-04-30T03:31:29.464Z,61.52
2016-04-30T03:32:29.485Z,61.71
2016-04-30T03:33:29.524Z,61.52
2016-04-30T03:34:29.597Z,61.52
2016-04-30T03:35:29.636Z,61.52
2016-04-30T03:36:29.677Z,61.24
2016-04-30T03:37:29.248Z,61.52
2016-04-30T03:38:29.722Z,61.52
2016-04-30T03:39:29.572Z,61.43
2016-04-30T03:40:29.827Z,61.71
2016-04-30T03:41:29.771Z,61.9
2016-04-30T03:42:29.812Z,61.99
2016-04-30T03:43:29.791Z,61.61
2016-04-30T03:44:29.784Z,62.28
2016-04-30T03:45:29.794Z,62.94
2016-04-30T03:46:29.789Z,62.47
2016-04-30T03:47:29.528Z,62.08
2016-04-30T03:48:29.986Z,61.99
2016-04-30T03:49:29.945Z,62.08
2016-04-30T03:50:29.794Z,61.99
2016-04-30T03:51:29.800Z,61.99
2016-04-30T03:52:29.804Z,61.9
2016-04-30T03:53:43.854Z,62.08
2016-04-30T03:54:29.796Z,61.43
2016-04-30T03:55:29.783Z,61.43
2016-04-30T03:56:29.786Z,61.43
2016-04-30T03:57:29.789Z,61.52
2016-04-30T03:58:29.668Z,61.71
2016-04-30T03:59:29.779Z,61.61
2016-04-30T04:00:29.783Z,61.71
2016-04-30T04:01:29.771Z,61.43
2016-04-30T04:02:29.774Z,61.61
2016-04-30T04:03:29.777Z,61.33
2016-04-30T04:04:29.982Z,61.71
2016-04-30T04:05:29.765Z,61.52
2016-04-30T04:06:29.971Z,61.71
2016-04-30T04:07:29.770Z,61.52
2016-04-30T04:08:29.962Z,61.33
2016-04-30T04:09:29.777Z,61.61
2016-04-30T04:10:29.763Z,61.99
2016-04-30T04:11:29.766Z,61.8
2016-04-30T04:13:29.756Z,62.02
2016-04-30T04:14:29.743Z,61.46
2016-04-30T04:15:29.746Z,61.74
2016-04-30T04:16:29.951Z,62.02
2016-04-30T04:17:29.751Z,61.99
2016-04-30T04:18:29.738Z,61.55
2016-04-30T04:19:29.741Z,62.21
2016-04-30T04:20:29.931Z,61.74
2016-04-30T04:21:29.934Z,62.02
2016-04-30T04:23:29.970Z,62.02
2016-04-30T04:24:29.722Z,61.65
2016-04-30T04:25:29.569Z,61.93
2016-04-30T04:26:29.728Z,61.93
2016-04-30T04:27:29.591Z,62.02
2016-04-30T04:28:29.719Z,61.74
2016-04-30T04:29:29.721Z,61.46
2016-04-30T04:30:29.708Z,61.36
2016-04-30T04:31:29.710Z,61.74
2016-04-30T04:32:29.713Z,61.74
2016-04-30T04:33:29.918Z,61.27
2016-04-30T04:34:43.782Z,60.98
2016-04-30T04:35:29.705Z,61.27
2016-04-30T04:36:29.708Z,61.46
2016-04-30T04:37:29.696Z,61.83
2016-04-30T04:39:29.466Z,61.55
2016-04-30T04:40:29.891Z,61.83
2016-04-30T04:41:29.706Z,61.87
2016-04-30T04:42:29.693Z,61.77
2016-04-30T04:43:29.774Z,62.05
2016-04-30T04:44:29.683Z,61.77
2016-04-30T04:45:43.764Z,61.39
2016-04-30T04:46:29.704Z,61.2
2016-04-30T04:47:29.723Z,61.49
2016-04-30T04:48:29.694Z,61.49
2016-04-30T04:49:29.743Z,61.49
2016-04-30T04:50:29.714Z,60.92
2016-04-30T04:51:29.702Z,61.39
2016-04-30T04:52:29.704Z,61.01
2016-04-30T04:53:29.708Z,61.2
2016-04-30T04:54:29.881Z,61.01
2016-04-30T04:55:29.681Z,61.11
2016-04-30T04:56:29.683Z,61.49
2016-04-30T04:57:29.889Z,61.01
2016-04-30T04:58:29.892Z,60.95
2016-04-30T05:00:29.680Z,60.28
2016-04-30T05:01:29.682Z,60.66
2016-04-30T05:02:29.685Z,60
2016-04-30T05:03:29.530Z,59.81
2016-04-30T05:04:29.549Z,61.33
2016-04-30T05:05:29.724Z,60.1
2016-04-30T05:06:29.680Z,61.04
2016-04-30T05:07:29.666Z,60
2016-04-30T05:08:29.685Z,60
2016-04-30T05:10:29.674Z,60.95
2016-04-30T05:11:29.693Z,59.81
2016-04-30T05:12:29.665Z,60.95
2016-04-30T05:13:29.667Z,59.71
2016-04-30T05:14:29.670Z,60
2016-04-30T05:15:29.657Z,60.22
2016-04-30T05:16:29.675Z,59.43
2016-04-30T05:17:29.678Z,59.84
2016-04-30T05:18:30.118Z,60.79
2016-04-30T05:19:29.746Z,59.74
2016-04-30T05:20:29.655Z,60.03
2016-04-30T05:21:29.658Z,59.55
2016-04-30T05:22:29.660Z,59.36
2016-04-30T05:23:29.678Z,59.17
2016-04-30T05:24:29.681Z,58.7
2016-04-30T05:25:29.700Z,57.84
2016-04-30T05:26:29.655Z,58.22
2016-04-30T05:27:29.861Z,57.46
2016-04-30T05:28:29.677Z,57.09
2016-04-30T05:29:43.882Z,57.56
2016-04-30T05:30:29.666Z,59.01
2016-04-30T05:31:29.669Z,58.83
2016-04-30T05:32:29.702Z,57.97
2016-04-30T05:33:30.111Z,57.3
2016-04-30T05:34:29.518Z,57.5
2016-04-30T05:35:29.663Z,58.35
2016-04-30T05:36:29.667Z,58.25
2016-04-30T05:37:29.511Z,56.92
2016-04-30T05:38:29.669Z,55.97
2016-04-30T05:39:29.704Z,56.54
2016-04-30T05:40:29.690Z,55.97
2016-04-30T05:41:29.677Z,56.45
2016-04-30T05:42:29.523Z,56.35
2016-04-30T05:43:29.417Z,57.21
2016-04-30T05:44:29.670Z,57.71
2016-04-30T05:45:29.673Z,57.68
2016-04-30T05:46:29.676Z,56.38
2016-04-30T05:47:29.896Z,56.48
2016-04-30T05:48:29.681Z,56.19
2016-04-30T05:49:30.137Z,56.95
2016-04-30T05:50:29.920Z,56
2016-04-30T05:51:29.673Z,57.43
2016-04-30T05:52:29.675Z,57.71
2016-04-30T05:53:29.678Z,58.37
2016-04-30T05:54:29.681Z,57.33
2016-04-30T05:55:29.683Z,56.76
2016-04-30T05:56:29.686Z,56.57
2016-04-30T05:57:29.236Z,57.81
2016-04-30T05:58:29.692Z,56.19
2016-04-30T05:59:29.523Z,54.96
2016-04-30T06:01:29.699Z,54.13
2016-04-30T06:02:29.702Z,54.98
2016-04-30T06:03:29.690Z,55.17
2016-04-30T06:04:29.567Z,56.12
2016-04-30T06:05:29.695Z,55.17
2016-04-30T06:06:29.713Z,55.65
2016-04-30T06:07:29.919Z,53.94
2016-04-30T06:08:29.938Z,54.79
2016-04-30T06:09:29.549Z,54.32
2016-04-30T06:10:29.693Z,53.75
2016-04-30T06:11:29.758Z,53.75
2016-04-30T06:12:29.714Z,55.65
2016-04-30T06:13:29.576Z,55.68
2016-04-30T06:14:29.735Z,54.44
2016-04-30T06:15:29.721Z,53.77
2016-04-30T06:17:30.165Z,52.25
2016-04-30T06:18:29.589Z,52.44
2016-04-30T06:19:30.311Z,52.44
2016-04-30T06:20:29.579Z,53.87
2016-04-30T06:21:29.738Z,53.01
2016-04-30T06:22:29.725Z,51.87
2016-04-30T06:23:29.753Z,52.47
2016-04-30T06:24:29.741Z,53.23
2016-04-30T06:25:29.743Z,52.18
2016-04-30T06:26:29.746Z,52.66
2016-04-30T06:27:29.749Z,52.84
2016-04-30T06:28:29.767Z,51.32
2016-04-30T06:29:29.769Z,50.85
2016-04-30T06:30:29.600Z,50.09
2016-04-30T06:31:43.841Z,50.27
2016-04-30T06:32:30.200Z,49.06
2016-04-30T06:33:29.765Z,51.54
2016-04-30T06:34:29.643Z,52.49
2016-04-30T06:35:43.851Z,49.92
2016-04-30T06:36:29.976Z,49.92
2016-04-30T06:37:29.791Z,50.3
2016-04-30T06:38:29.793Z,49.73
2016-04-30T06:39:29.656Z,50.59
2016-04-30T06:40:29.784Z,51.35
2016-04-30T06:41:29.802Z,51.35
2016-04-30T06:42:30.023Z,50.49
2016-04-30T06:43:29.667Z,50.49
2016-04-30T06:44:29.825Z,51.18
2016-04-30T06:45:29.812Z,52.33
2016-04-30T06:46:30.425Z,52.23
2016-04-30T06:47:30.020Z,53.28
2016-04-30T06:48:30.226Z,54.33
2016-04-30T06:49:29.823Z,53.56
2016-04-30T06:50:30.076Z,53.19
2016-04-30T06:51:29.829Z,52.9
2016-04-30T06:52:29.862Z,53.95
2016-04-30T06:53:29.833Z,53.19
2016-04-30T06:54:29.837Z,53.02
2016-04-30T06:55:29.700Z,52.71
2016-04-30T06:56:29.702Z,53.41
2016-04-30T06:57:29.860Z,54.17
2016-04-30T06:58:30.066Z,52.55
2016-04-30T06:59:29.866Z,53.59
2016-04-30T07:00:29.884Z,52.55
2016-04-30T07:01:29.872Z,52.55
2016-04-30T07:02:29.889Z,49.62
2016-04-30T07:03:44.161Z,47.99
2016-04-30T07:04:43.960Z,47.23
2016-04-30T07:05:30.116Z,48.08
2016-04-30T07:06:29.899Z,49.52
2016-04-30T07:07:29.919Z,48.66
2016-04-30T07:08:29.905Z,49.52
2016-04-30T07:09:30.158Z,47.54
2016-04-30T07:10:29.943Z,47.16
2016-04-30T07:11:30.163Z,48.39
2016-04-30T07:12:29.932Z,47.34
2016-04-30T07:13:29.966Z,47.73
2016-04-30T07:14:29.953Z,48.59
2016-04-30T07:15:29.956Z,45.92
2016-04-30T07:16:29.990Z,45.94
2016-04-30T07:17:29.962Z,46.32
2016-04-30T07:18:29.964Z,46.42
2016-04-30T07:19:29.998Z,47.56
2016-04-30T07:20:29.812Z,47.66
2016-04-30T07:21:30.019Z,47.08
2016-04-30T07:22:44.259Z,46.99
2016-04-30T07:23:30.009Z,46.89
2016-04-30T07:24:30.042Z,47.85
2016-04-30T07:25:30.123Z,47.85
2016-04-30T07:26:44.097Z,48.04
2016-04-30T07:27:29.910Z,48.07
2016-04-30T07:28:30.288Z,47.37
2016-04-30T07:29:29.572Z,47.87
2016-04-30T07:30:30.309Z,47.11
2016-04-30T07:31:30.077Z,43.86
2016-04-30T07:32:30.314Z,43.09
2016-04-30T07:33:30.066Z,43.09
2016-04-30T07:34:29.913Z,44.05
2016-04-30T07:35:30.072Z,44.62
2016-04-30T07:36:30.091Z,45.1
2016-04-30T07:37:30.093Z,44.72
2016-04-30T07:38:29.940Z,41.18
2016-04-30T07:39:30.099Z,41.95
2016-04-30T07:40:30.304Z,42.9
2016-04-30T07:41:30.135Z,43.57
2016-04-30T07:42:30.122Z,43.02
2016-04-30T07:43:30.124Z,42.83
2016-04-30T07:44:30.143Z,43.02
2016-04-30T07:45:30.412Z,44.07
2016-04-30T07:46:30.148Z,44.26
2016-04-30T07:47:30.151Z,43.59
2016-04-30T07:48:30.170Z,44.55
2016-04-30T07:49:30.782Z,41.3
2016-04-30T07:50:30.018Z,42.64
2016-04-30T07:51:30.037Z,41.87
2016-04-30T07:52:30.211Z,42.64
2016-04-30T07:53:30.198Z,42.16
2016-04-30T07:54:30.217Z,42.93
2016-04-30T07:55:30.064Z,43.59
2016-04-30T07:56:30.222Z,44.45
2016-04-30T07:57:30.225Z,42.44
2016-04-30T07:58:30.244Z,43.52
2016-04-30T07:59:30.246Z,42.56
2016-04-30T08:00:30.249Z,42.18
2016-04-30T08:01:30.267Z,41.7
2016-04-30T08:02:30.269Z,39.31
2016-04-30T08:03:30.319Z,40.94
2016-04-30T08:04:30.338Z,41.7
2016-04-30T08:05:30.340Z,41.22
2016-04-30T08:06:30.296Z,41.89
2016-04-30T08:07:30.313Z,42.37
2016-04-30T08:08:30.536Z,42.66
2016-04-30T08:09:44.401Z,42.94
2016-04-30T08:10:30.322Z,42.18
2016-04-30T08:11:30.543Z,42.47
2016-04-30T08:12:30.374Z,40.26
2016-04-30T08:14:30.817Z,40.94
2016-04-30T08:15:30.382Z,40.46
2016-04-30T08:16:30.401Z,39.79
2016-04-30T08:17:30.591Z,37.3
2016-04-30T08:18:30.422Z,37.68
2016-04-30T08:19:30.425Z,39.31
2016-04-30T08:20:30.459Z,38.93
2016-04-30T08:21:44.698Z,35.86
2016-04-30T08:22:30.479Z,37.97
2016-04-30T08:23:30.467Z,38.26
2016-04-30T08:24:30.470Z,39.79
2016-04-30T08:25:30.473Z,38.74
2016-04-30T08:26:30.569Z,38.83
2016-04-30T08:27:30.477Z,37.97
2016-04-30T08:28:30.481Z,37.11
2016-04-30T08:29:30.498Z,37.21
2016-04-30T08:30:30.516Z,37.68
2016-04-30T08:31:30.520Z,37.4
2016-04-30T08:32:30.506Z,38.07
2016-04-30T08:33:30.525Z,37.3
2016-04-30T08:34:30.543Z,37.21
2016-04-30T08:35:30.389Z,37.21
2016-04-30T08:36:30.532Z,37.4
2016-04-30T08:37:30.520Z,36.82
2016-04-30T08:38:30.601Z,38.45
2016-04-30T08:39:30.649Z,38.14
2016-04-30T08:40:30.746Z,38.17
2016-04-30T08:41:30.687Z,38.74
2016-04-30T08:42:30.596Z,39.12
2016-04-30T08:43:30.457Z,38.83
2016-04-30T08:44:30.445Z,38.64
2016-04-30T08:45:30.651Z,39.03
2016-04-30T08:46:30.623Z,38.74
2016-04-30T08:47:30.625Z,38.54
2016-04-30T08:48:30.643Z,38.07
2016-04-30T08:49:30.490Z,37.78
2016-04-30T08:50:30.509Z,37.88
2016-04-30T08:51:30.682Z,37.97
2016-04-30T08:52:30.889Z,36.82
2016-04-30T08:53:30.892Z,37.21
2016-04-30T08:54:30.706Z,37.88
2016-04-30T08:55:30.708Z,37.49
2016-04-30T08:56:30.914Z,37.3
2016-04-30T08:57:30.917Z,37.78
2016-04-30T08:58:30.733Z,37.97
2016-04-30T08:59:31.141Z,38.37
2016-04-30T09:00:30.738Z,37.97
2016-04-30T09:01:44.837Z,38.95
2016-04-30T09:02:44.839Z,38.56
2016-04-30T09:03:30.605Z,38.66
2016-04-30T09:04:30.796Z,37.61
2016-04-30T09:05:30.799Z,37.13
2016-04-30T09:06:30.802Z,37.23
2016-04-30T09:07:30.804Z,37.04
2016-04-30T09:08:30.807Z,37.32
2016-04-30T09:09:30.810Z,36.94
2016-04-30T09:10:30.827Z,37.13
2016-04-30T09:11:30.829Z,37.61
2016-04-30T09:12:30.848Z,36.94
2016-04-30T09:13:30.835Z,37.61
2016-04-30T09:14:30.885Z,37.13
2016-04-30T09:15:30.887Z,37.13
2016-04-30T09:16:30.874Z,39.33
2016-04-30T09:17:30.893Z,38.28
2016-04-30T09:18:30.880Z,37.32
2016-04-30T09:19:32.648Z,37.23
2016-04-30T09:20:30.917Z,37.13
2016-04-30T09:21:31.123Z,37.13
2016-04-30T09:22:30.766Z,37.99
2016-04-30T09:23:30.925Z,37.23
2016-04-30T09:24:30.943Z,37.41
2016-04-30T09:25:45.043Z,37.04
2016-04-30T09:26:30.809Z,36.94
2016-04-30T09:27:30.966Z,35.81
2016-04-30T09:28:31.000Z,34.66
2016-04-30T09:30:31.022Z,35.14
2016-04-30T09:31:31.008Z,35.33
2016-04-30T09:32:31.214Z,34.66
2016-04-30T09:33:31.030Z,35.04
2016-04-30T09:34:31.002Z,35.04
2016-04-30T09:35:31.066Z,35.61
2016-04-30T09:36:31.054Z,35.24
2016-04-30T09:37:31.072Z,34.94
2016-04-30T09:38:30.918Z,35.42
2016-04-30T09:39:31.093Z,35.71
2016-04-30T09:40:31.096Z,35.52
2016-04-30T09:41:31.099Z,35.52
2016-04-30T09:42:30.960Z,35.24
2016-04-30T09:43:30.979Z,35.42
2016-04-30T09:44:31.121Z,34.75
2016-04-30T09:45:31.360Z,34.37
2016-04-30T09:46:31.159Z,34.28
2016-04-30T09:47:31.161Z,34.94
2016-04-30T09:48:31.165Z,34.28
2016-04-30T09:49:31.198Z,34.28
2016-04-30T09:50:31.215Z,34.37
2016-04-30T09:51:31.391Z,33.8
2016-04-30T09:52:31.206Z,33.8
2016-04-30T09:53:45.290Z,34.18
2016-04-30T09:54:31.243Z,33.99
2016-04-30T09:55:45.514Z,34.37
2016-04-30T09:56:31.248Z,34
2016-04-30T09:57:31.469Z,33.99
2016-04-30T09:58:31.269Z,32.84
2016-04-30T09:59:31.287Z,34.48
2016-04-30T10:00:31.290Z,35.06
2016-04-30T10:01:31.292Z,34.39
2016-04-30T10:02:31.295Z,34.87
2016-04-30T10:03:31.298Z,33.91
2016-04-30T10:04:31.411Z,33.62
2016-04-30T10:05:31.335Z,33.14
2016-04-30T10:06:31.322Z,32.95
2016-04-30T10:07:31.371Z,33.24
2016-04-30T10:08:32.014Z,32.76
2016-04-30T10:09:31.799Z,32.67
2016-04-30T10:10:31.379Z,32.97
2016-04-30T10:11:30.960Z,32.87
2016-04-30T10:12:31.400Z,33.16
2016-04-30T10:13:31.481Z,32.49
2016-04-30T10:15:31.440Z,32.97
2016-04-30T10:16:31.443Z,33.16
2016-04-30T10:17:31.288Z,33.25
2016-04-30T10:18:31.338Z,34.12
2016-04-30T10:19:31.466Z,34.59
2016-04-30T10:20:31.468Z,34.12
2016-04-30T10:21:31.488Z,33.84
2016-04-30T10:22:31.490Z,33.27
2016-04-30T10:23:31.493Z,33.94
2016-04-30T10:24:31.512Z,32.89
2016-04-30T10:25:31.529Z,32.89
2016-04-30T10:26:31.734Z,32.6
2016-04-30T10:27:31.738Z,31.54
2016-04-30T10:28:31.756Z,32.9
2016-04-30T10:29:45.650Z,32.42
2016-04-30T10:30:31.809Z,31.75
2016-04-30T10:31:31.436Z,33.19
2016-04-30T10:32:31.798Z,31.95
2016-04-30T10:33:31.614Z,32.04
2016-04-30T10:34:31.881Z,31.95
2016-04-30T10:35:31.650Z,31.75
2016-04-30T10:36:31.652Z,31.75
2016-04-30T10:37:31.656Z,31.75
2016-04-30T10:38:31.674Z,30.12
2016-04-30T10:39:31.864Z,30.81
2016-04-30T10:40:45.758Z,30.23
2016-04-30T10:41:31.728Z,30.14
2016-04-30T10:42:45.794Z,29.93
2016-04-30T10:43:31.938Z,29.85
2016-04-30T10:44:31.736Z,29.37
2016-04-30T10:45:31.739Z,29.37
2016-04-30T10:46:31.758Z,28.79
2016-04-30T10:47:31.760Z,31.2
2016-04-30T10:48:31.779Z,31.87
2016-04-30T10:49:31.891Z,31.38
2016-04-30T10:50:31.799Z,30.52
2016-04-30T10:51:31.802Z,30.52
2016-04-30T10:52:32.023Z,29.37
2016-04-30T10:53:31.871Z,29.75
2016-04-30T10:54:31.889Z,30.43
2016-04-30T10:55:31.860Z,29.94
2016-04-30T10:56:31.863Z,29.47
2016-04-30T10:57:31.881Z,29.27
2016-04-30T10:58:32.118Z,28.7
2016-04-30T10:59:31.934Z,29.27
2016-04-30T11:00:31.764Z,28.89
2016-04-30T11:01:31.939Z,28.99
2016-04-30T11:02:31.941Z,29.85
2016-04-30T11:03:32.179Z,29.37
2016-04-30T11:04:31.962Z,28.52
2016-04-30T11:05:32.402Z,29
2016-04-30T11:06:31.984Z,29.19
2016-04-30T11:07:31.845Z,29.96
2016-04-30T11:08:32.004Z,30.15
2016-04-30T11:09:32.023Z,29.19
2016-04-30T11:10:32.042Z,29.96
2016-04-30T11:11:32.044Z,30.05
2016-04-30T11:12:31.921Z,30.15
2016-04-30T11:13:32.861Z,30.05
2016-04-30T11:14:32.276Z,29.49
2016-04-30T11:15:32.072Z,29.49
2016-04-30T11:16:32.329Z,30.36
2016-04-30T11:17:32.124Z,30.65
2016-04-30T11:18:32.112Z,29.88
2016-04-30T11:19:32.130Z,26.32
2016-04-30T11:20:31.711Z,22.29
2016-04-30T11:21:32.151Z,22.96
2016-04-30T11:22:32.373Z,25.84
2016-04-30T11:23:32.187Z,26.81
2016-04-30T11:24:32.190Z,27.76
2016-04-30T11:25:32.068Z,27.97
2016-04-30T11:26:32.273Z,27.86
2016-04-30T11:27:32.214Z,27.59
2016-04-30T11:28:32.232Z,28.74
2016-04-30T11:29:32.453Z,29.13
2016-04-30T11:30:32.269Z,28.84
2016-04-30T11:31:32.881Z,27.59
2016-04-30T11:32:32.289Z,27.12
2016-04-30T11:33:46.386Z,25.58
2016-04-30T11:34:32.326Z,24.52
2016-04-30T11:36:32.348Z,25.39
2016-04-30T11:37:32.366Z,25.2
2016-04-30T11:38:32.368Z,24.04
2016-04-30T11:39:32.418Z,25.31
2016-04-30T11:40:31.936Z,24.54
2016-04-30T11:41:46.610Z,24.82
2016-04-30T11:42:32.567Z,24.73
2016-04-30T11:43:32.444Z,25.79
2016-04-30T11:44:32.463Z,23.86
2016-04-30T11:45:32.466Z,24.74
2016-04-30T11:46:32.484Z,25.32
2016-04-30T11:47:32.549Z,25.99
2016-04-30T11:48:32.738Z,25.7
2016-04-30T11:49:32.804Z,26.28
2016-04-30T11:50:32.541Z,26
2016-04-30T11:51:32.544Z,25.62
2016-04-30T11:53:32.581Z,24.46
2016-04-30T11:54:32.629Z,25.71
2016-04-30T11:55:32.617Z,25.62
2016-04-30T11:56:32.635Z,25.04
2016-04-30T11:57:32.638Z,24.28
2016-04-30T11:58:32.656Z,23.99
2016-04-30T11:59:32.675Z,25.15
2016-04-30T12:00:32.693Z,24.28
2016-04-30T12:01:32.790Z,24.96
2016-04-30T12:02:32.731Z,25.34
2016-04-30T12:03:32.732Z,22.93
2016-04-30T12:04:32.750Z,22.17
2016-04-30T12:05:32.770Z,23.91
2016-04-30T12:06:32.772Z,24.49
2016-04-30T12:07:32.790Z,23.81
2016-04-30T12:08:47.090Z,23.91
2016-04-30T12:09:32.874Z,22.94
2016-04-30T12:10:33.047Z,21.5
2016-04-30T12:11:32.879Z,21.98
2016-04-30T12:12:32.866Z,22.94
2016-04-30T12:13:33.525Z,23.62
2016-04-30T12:14:46.980Z,21.4
2016-04-30T12:15:32.921Z,22.17
2016-04-30T12:16:32.783Z,22.75
2016-04-30T12:17:32.801Z,22.27
2016-04-30T12:18:32.819Z,21.98
2016-04-30T12:19:32.994Z,22.94
2016-04-30T12:20:32.997Z,22.75
2016-04-30T12:21:33.031Z,22.94
2016-04-30T12:22:33.034Z,22.85
2016-04-30T12:23:33.082Z,22.94
2016-04-30T12:24:32.898Z,22.85
2016-04-30T12:25:33.073Z,22.46
2016-04-30T12:26:33.123Z,22.38
2016-04-30T12:27:33.110Z,22.86
2016-04-30T12:28:32.971Z,20.16
2016-04-30T12:29:33.131Z,20.43
2016-04-30T12:30:33.352Z,21.22
2016-04-30T12:31:33.401Z,20.93
2016-04-30T12:32:33.200Z,19.29
2016-04-30T12:33:33.219Z,20.35
2016-04-30T12:34:33.972Z,21.22
2016-04-30T12:35:33.240Z,19.2
2016-04-30T12:36:33.258Z,20.83
2016-04-30T12:37:33.277Z,21.7
2016-04-30T12:38:33.291Z,19
2016-04-30T12:39:33.349Z,20.25
2016-04-30T12:40:33.237Z,21.8
2016-04-30T12:41:33.452Z,21.61
2016-04-30T12:42:33.370Z,22.19
2016-04-30T12:43:33.593Z,21.89
2016-04-30T12:44:33.596Z,22.67
2016-04-30T12:45:33.645Z,23.72
2016-04-30T12:46:33.506Z,23.72
2016-04-30T12:47:33.696Z,22.96
2016-04-30T12:48:33.741Z,22.86
2016-04-30T12:49:34.061Z,22.28
2016-04-30T12:50:33.757Z,21.89
2016-04-30T12:51:33.796Z,21.31
2016-04-30T12:52:33.804Z,21.71
2016-04-30T12:53:33.811Z,21.52
2016-04-30T12:54:33.879Z,18.33
2016-04-30T12:55:33.867Z,20.45
2016-04-30T12:56:33.888Z,21.13
2016-04-30T12:57:33.752Z,21.62
2016-04-30T12:58:34.303Z,21.52
2016-04-30T12:59:34.165Z,21.33
2016-04-30T13:00:33.965Z,21.42
2016-04-30T13:01:34.235Z,20.75
2016-04-30T13:02:33.846Z,20.36
2016-04-30T13:03:33.850Z,21.42
2016-04-30T13:04:35.447Z,20.46
2016-04-30T13:05:34.278Z,19.68
2016-04-30T13:06:33.922Z,18.53
2016-04-30T13:07:34.127Z,19.3
2016-04-30T13:08:34.286Z,20.36
2016-04-30T13:09:34.102Z,20.46
2016-04-30T13:10:34.151Z,18.91
2016-04-30T13:11:34.139Z,20.26
2016-04-30T13:12:34.157Z,21.42